createdAt,value
2018-10-07T00:02:08.994Z,11.83
2018-10-07T00:04:37.339Z,11.17
2018-10-07T00:07:05.513Z,11.97
2018-10-07T00:09:33.660Z,11.30
2018-10-07T00:12:01.854Z,11.67
2018-10-07T00:14:30.043Z,11.67
2018-10-07T00:16:58.238Z,11.47
2018-10-07T00:19:26.461Z,10.93
2018-10-07T00:21:54.789Z,12.20
2018-10-07T00:24:23.020Z,11.87
2018-10-07T00:26:51.305Z,10.73
2018-10-07T00:29:19.518Z,11.30
2018-10-07T00:31:53.078Z,11.27
2018-10-07T00:34:21.242Z,9.73
2018-10-07T00:36:49.412Z,11.43
2018-10-07T00:39:17.527Z,10.93
2018-10-07T00:41:45.728Z,11.07
2018-10-07T00:44:14.045Z,10.57
2018-10-07T00:46:42.251Z,12.10
2018-10-07T00:49:10.381Z,11.63
2018-10-07T00:51:38.525Z,11.00
2018-10-07T00:54:06.787Z,10.50
2018-10-07T00:56:35.002Z,11.27
2018-10-07T00:59:03.133Z,10.93
2018-10-07T01:01:31.293Z,10.80
2018-10-07T01:03:59.440Z,10.17
2018-10-07T01:06:27.615Z,11.40
2018-10-07T01:08:55.737Z,10.50
2018-10-07T01:11:23.910Z,12.47
2018-10-07T01:13:52.105Z,12.43
2018-10-07T01:16:20.303Z,12.07
2018-10-07T01:18:48.493Z,12.10
2018-10-07T01:21:16.701Z,10.67
2018-10-07T01:23:44.950Z,11.10
2018-10-07T01:26:13.094Z,10.40
2018-10-07T01:28:41.247Z,11.03
2018-10-07T01:31:09.456Z,10.83
2018-10-07T01:33:37.646Z,11.13
2018-10-07T01:36:05.819Z,11.50
2018-10-07T01:38:33.948Z,11.40
2018-10-07T01:41:02.111Z,10.13
2018-10-07T01:43:30.295Z,10.87
2018-10-07T01:45:58.473Z,12.47
2018-10-07T01:48:26.585Z,12.63
2018-10-07T01:50:54.817Z,12.30
2018-10-07T01:53:22.964Z,12.90
2018-10-07T01:55:51.177Z,12.50
2018-10-07T01:58:19.494Z,13.77
2018-10-07T02:00:47.637Z,12.33
2018-10-07T02:03:15.920Z,11.40
2018-10-07T02:05:44.077Z,13.00
2018-10-07T02:08:12.351Z,11.90
2018-10-07T02:10:40.505Z,11.00
2018-10-07T02:13:08.637Z,10.93
2018-10-07T02:15:36.808Z,10.50
2018-10-07T02:18:04.940Z,11.87
2018-10-07T02:20:33.117Z,11.73
2018-10-07T02:23:01.291Z,11.70
2018-10-07T02:25:29.447Z,11.80
2018-10-07T02:27:57.625Z,12.23
2018-10-07T02:30:25.802Z,11.83
2018-10-07T02:32:53.979Z,11.70
2018-10-07T02:35:22.149Z,13.80
2018-10-07T02:37:50.369Z,14.27
2018-10-07T02:40:18.553Z,13.67
2018-10-07T02:42:46.719Z,12.03
2018-10-07T02:45:14.862Z,13.00
2018-10-07T02:47:43.112Z,12.07
2018-10-07T02:50:21.377Z,12.43
2018-10-07T02:52:53.017Z,11.67
2018-10-07T02:55:27.431Z,11.63
2018-10-07T02:57:56.741Z,11.20
2018-10-07T03:00:24.903Z,11.30
2018-10-07T03:02:53.405Z,10.33
2018-10-07T03:05:21.549Z,13.10
2018-10-07T03:07:49.818Z,12.73
2018-10-07T03:10:17.987Z,12.63
2018-10-07T03:12:46.270Z,12.33
2018-10-07T03:15:14.421Z,10.77
2018-10-07T03:17:42.611Z,10.60
2018-10-07T03:20:10.795Z,11.77
2018-10-07T03:22:38.931Z,11.73
2018-10-07T03:25:07.123Z,11.60
2018-10-07T03:27:35.357Z,10.80
2018-10-07T03:30:03.561Z,11.47
2018-10-07T03:32:31.733Z,12.17
2018-10-07T03:34:59.892Z,11.90
2018-10-07T03:37:28.106Z,13.07
2018-10-07T03:39:56.287Z,12.80
2018-10-07T03:42:24.479Z,12.57
2018-10-07T03:44:52.660Z,11.80
2018-10-07T03:47:20.873Z,12.37
2018-10-07T03:49:49.018Z,12.93
2018-10-07T03:52:17.236Z,12.23
2018-10-07T03:54:45.339Z,12.27
2018-10-07T03:57:13.456Z,10.77
2018-10-07T03:59:41.669Z,11.07
2018-10-07T04:02:09.857Z,9.30
2018-10-07T04:04:37.990Z,10.43
2018-10-07T04:07:06.355Z,11.03
2018-10-07T04:09:34.479Z,10.60
2018-10-07T04:12:02.677Z,11.40
2018-10-07T04:14:30.861Z,11.43
2018-10-07T04:16:58.997Z,11.33
2018-10-07T04:19:27.151Z,12.50
2018-10-07T04:21:57.193Z,11.70
2018-10-07T04:24:26.858Z,10.60
2018-10-07T04:26:55.084Z,11.17
2018-10-07T04:29:23.251Z,11.77
2018-10-07T04:31:51.495Z,11.17
2018-10-07T04:34:19.692Z,11.90
2018-10-07T04:36:47.882Z,10.60
2018-10-07T04:39:16.006Z,10.73
2018-10-07T04:41:44.512Z,9.97
2018-10-07T04:44:12.645Z,10.13
2018-10-07T04:46:41.388Z,11.27
2018-10-07T04:49:09.567Z,10.87
2018-10-07T04:51:37.756Z,12.50
2018-10-07T04:54:05.983Z,10.67
2018-10-07T04:56:34.720Z,11.70
2018-10-07T04:59:02.963Z,12.23
2018-10-07T05:01:31.141Z,11.40
2018-10-07T05:03:59.292Z,9.83
2018-10-07T05:06:30.224Z,9.77
2018-10-07T05:08:58.529Z,10.47
2018-10-07T05:11:27.513Z,10.70
2018-10-07T05:13:56.513Z,9.10
2018-10-07T05:16:30.513Z,11.63
2018-10-07T05:18:59.275Z,10.97
2018-10-07T05:21:27.451Z,11.40
2018-10-07T05:23:56.201Z,11.70
2018-10-07T05:26:24.409Z,11.93
2018-10-07T05:28:52.597Z,12.07
2018-10-07T05:31:20.795Z,10.27
2018-10-07T05:33:48.972Z,10.77
2018-10-07T05:36:17.212Z,9.83
2018-10-07T05:38:45.381Z,10.30
2018-10-07T05:41:13.573Z,9.60
2018-10-07T05:43:41.737Z,9.37
2018-10-07T05:46:10.033Z,10.07
2018-10-07T05:48:38.191Z,10.50
2018-10-07T05:51:06.427Z,10.20
2018-10-07T05:53:34.558Z,9.87
2018-10-07T05:56:02.786Z,10.33
2018-10-07T05:58:31.407Z,8.83
2018-10-07T06:01:04.128Z,8.80
2018-10-07T06:05:43.560Z,10.33
2018-10-07T06:08:12.884Z,10.70
2018-10-07T06:10:41.068Z,9.40
2018-10-07T06:13:09.299Z,10.90
2018-10-07T06:15:38.545Z,9.13
2018-10-07T06:18:07.045Z,7.70
2018-10-07T06:20:35.263Z,8.73
2018-10-07T06:23:03.451Z,9.77
2018-10-07T06:25:31.625Z,8.93
2018-10-07T06:27:59.803Z,8.30
2018-10-07T06:30:28.145Z,7.93
2018-10-07T06:32:56.461Z,8.23
2018-10-07T06:35:25.572Z,8.20
2018-10-07T06:37:54.602Z,9.77
2018-10-07T06:40:22.815Z,9.30
2018-10-07T06:42:50.992Z,8.73
2018-10-07T06:45:19.558Z,8.67
2018-10-07T06:47:47.873Z,8.30
2018-10-07T06:50:16.071Z,9.53
2018-10-07T06:52:44.384Z,9.50
2018-10-07T06:55:12.515Z,8.83
2018-10-07T06:57:40.803Z,9.53
2018-10-07T07:00:09.529Z,9.83
2018-10-07T07:02:37.853Z,10.83
2018-10-07T07:05:06.038Z,10.20
2018-10-07T07:07:34.223Z,9.83
2018-10-07T07:10:02.459Z,9.73
2018-10-07T07:12:30.701Z,10.83
2018-10-07T07:14:58.917Z,11.07
2018-10-07T07:17:27.155Z,10.43
2018-10-07T07:19:55.431Z,11.20
2018-10-07T07:22:23.611Z,11.50
2018-10-07T07:24:51.895Z,9.90
2018-10-07T07:27:20.116Z,10.13
2018-10-07T07:29:48.397Z,10.57
2018-10-07T07:32:16.620Z,11.40
2018-10-07T07:34:44.915Z,11.27
2018-10-07T07:37:13.069Z,11.67
2018-10-07T07:39:41.303Z,11.00
2018-10-07T07:42:09.516Z,10.70
2018-10-07T07:44:37.725Z,10.53
2018-10-07T07:47:05.896Z,11.17
2018-10-07T07:49:34.166Z,11.07
2018-10-07T07:52:02.403Z,10.67
2018-10-07T07:54:30.662Z,10.63
2018-10-07T07:56:59.895Z,9.27
2018-10-07T07:59:28.371Z,9.43
2018-10-07T08:01:56.670Z,9.87
2018-10-07T08:04:25.931Z,10.37
2018-10-07T08:06:54.150Z,10.47
2018-10-07T08:09:22.294Z,9.60
2018-10-07T08:11:50.488Z,10.77
2018-10-07T08:14:18.651Z,9.77
2018-10-07T08:16:46.835Z,9.03
2018-10-07T08:19:15.077Z,9.50
2018-10-07T08:21:43.241Z,8.47
2018-10-07T08:24:11.470Z,9.63
2018-10-07T08:26:39.637Z,9.30
2018-10-07T08:29:07.878Z,9.23
2018-10-07T08:31:36.037Z,9.37
2018-10-07T08:34:04.424Z,8.83
2018-10-07T08:36:32.607Z,9.53
2018-10-07T08:39:00.777Z,7.50
2018-10-07T08:41:29.008Z,9.77
2018-10-07T08:43:57.249Z,10.33
2018-10-07T08:46:25.493Z,9.23
2018-10-07T08:48:53.654Z,10.47
2018-10-07T08:51:21.812Z,11.20
2018-10-07T08:53:50.044Z,11.10
2018-10-07T08:56:18.706Z,11.50
2018-10-07T08:58:46.924Z,10.67
2018-10-07T09:01:15.085Z,11.27
2018-10-07T09:03:43.609Z,10.60
2018-10-07T09:06:11.774Z,10.30
2018-10-07T09:08:40.027Z,10.17
2018-10-07T09:11:08.223Z,11.00
2018-10-07T09:13:36.397Z,10.40
2018-10-07T09:16:05.033Z,9.30
2018-10-07T09:18:33.415Z,9.33
2018-10-07T09:21:01.609Z,9.63
2018-10-07T09:23:29.771Z,9.83
2018-10-07T09:25:58.033Z,9.27
2018-10-07T09:28:26.241Z,9.57
2018-10-07T09:30:54.475Z,9.73
2018-10-07T09:33:22.805Z,9.40
2018-10-07T09:35:50.944Z,10.00
2018-10-07T09:38:19.168Z,10.60
2018-10-07T09:40:47.396Z,9.73
2018-10-07T09:43:15.665Z,9.47
2018-10-07T09:45:43.962Z,8.87
2018-10-07T09:48:12.222Z,9.67
2018-10-07T09:50:40.394Z,10.60
2018-10-07T09:53:08.562Z,10.70
2018-10-07T09:55:36.709Z,9.83
2018-10-07T09:58:04.961Z,10.43
2018-10-07T10:00:38.423Z,10.23
2018-10-07T10:03:06.735Z,9.70
2018-10-07T10:05:35.037Z,9.67
2018-10-07T10:08:03.223Z,8.93
2018-10-07T10:10:31.389Z,8.73
2018-10-07T10:12:59.594Z,8.90
2018-10-07T10:15:27.764Z,9.60
2018-10-07T10:18:11.963Z,9.37
2018-10-07T10:20:44.601Z,9.60
2018-10-07T10:23:17.234Z,9.17
2018-10-07T10:25:50.786Z,8.53
2018-10-07T10:28:30.407Z,8.67
2018-10-07T10:31:29.281Z,8.53
2018-10-07T10:34:05.235Z,8.10
2018-10-07T10:36:34.930Z,7.97
2018-10-07T10:39:10.065Z,6.83
2018-10-07T10:41:41.416Z,6.73
2018-10-07T10:44:24.437Z,6.73
2018-10-07T10:46:54.499Z,6.37
2018-10-07T10:50:26.754Z,7.30
2018-10-07T10:53:03.528Z,6.47
2018-10-07T10:55:41.851Z,6.10
2018-10-07T11:00:17.913Z,6.30
2018-10-07T11:02:49.911Z,6.93
2018-10-07T11:05:21.287Z,6.00
2018-10-07T11:07:53.705Z,6.23
2018-10-07T11:10:23.196Z,6.13
2018-10-07T11:12:55.160Z,6.37
2018-10-07T11:15:26.124Z,6.03
2018-10-07T11:17:59.942Z,6.73
2018-10-07T11:21:04.923Z,6.43
2018-10-07T11:23:38.699Z,6.83
2018-10-07T11:26:08.993Z,6.03
2018-10-07T11:29:43.727Z,6.30
2018-10-07T11:35:40.675Z,5.73
2018-10-07T11:38:13.197Z,6.20
2018-10-07T11:44:16.517Z,5.83
2018-10-07T11:47:07.781Z,6.33
2018-10-07T11:49:41.399Z,6.00
2018-10-07T11:52:15.011Z,4.97
2018-10-07T11:55:12.056Z,5.13
2018-10-07T11:57:42.281Z,5.27
2018-10-07T12:00:12.062Z,4.93
2018-10-07T12:05:25.640Z,4.77
2018-10-07T12:08:13.297Z,4.57
2018-10-07T12:10:43.971Z,4.30
2018-10-07T12:13:15.788Z,4.47
2018-10-07T12:15:44.161Z,4.47
2018-10-07T12:18:14.171Z,5.33
2018-10-07T12:20:43.323Z,5.27
2018-10-07T12:23:15.555Z,4.30
2018-10-07T12:25:45.614Z,4.43
2018-10-07T12:28:13.832Z,4.57
2018-10-07T12:30:43.584Z,4.83
2018-10-07T12:33:15.715Z,4.87
2018-10-07T12:35:47.893Z,4.70
2018-10-07T12:38:16.093Z,4.87
2018-10-07T12:40:48.172Z,4.70
2018-10-07T12:43:19.531Z,4.20
2018-10-07T12:45:49.590Z,4.33
2018-10-07T12:48:21.289Z,4.43
2018-10-07T12:50:49.533Z,4.30
2018-10-07T12:53:17.891Z,4.73
2018-10-07T12:55:52.250Z,5.20
2018-10-07T12:58:21.859Z,4.73
2018-10-07T13:00:50.082Z,4.23
2018-10-07T13:03:21.760Z,4.83
2018-10-07T13:05:53.541Z,5.30
2018-10-07T13:08:23.159Z,4.50
2018-10-07T13:10:53.094Z,3.83
2018-10-07T13:13:24.445Z,4.57
2018-10-07T13:15:54.209Z,4.67
2018-10-07T13:18:25.907Z,4.17
2018-10-07T13:20:55.054Z,4.67
2018-10-07T13:23:26.485Z,3.53
2018-10-07T13:25:54.991Z,4.60
2018-10-07T13:28:27.261Z,4.57
2018-10-07T13:30:55.546Z,4.40
2018-10-07T13:33:23.808Z,4.30
2018-10-07T13:35:52.063Z,4.20
2018-10-07T13:38:20.308Z,4.60
2018-10-07T13:40:48.658Z,4.20
2018-10-07T13:43:16.902Z,4.13
2018-10-07T13:45:45.394Z,4.00
2018-10-07T13:48:13.798Z,4.50
2018-10-07T13:50:42.218Z,4.10
2018-10-07T13:53:13.407Z,4.30
2018-10-07T13:55:41.837Z,3.70
2018-10-07T13:58:10.890Z,3.90
2018-10-07T14:00:39.180Z,4.07
2018-10-07T14:03:07.394Z,4.23
2018-10-07T14:05:35.695Z,3.93
2018-10-07T14:08:03.848Z,3.87
2018-10-07T14:10:33.108Z,4.30
2018-10-07T14:13:01.301Z,4.00
2018-10-07T14:15:29.576Z,4.00
2018-10-07T14:18:00.391Z,3.67
2018-10-07T14:20:29.008Z,3.67
2018-10-07T14:22:57.401Z,3.03
2018-10-07T14:25:25.717Z,3.20
2018-10-07T14:27:54.029Z,3.87
2018-10-07T14:30:22.456Z,3.77
2018-10-07T14:32:50.821Z,4.20
2018-10-07T14:35:19.661Z,4.33
2018-10-07T14:37:47.908Z,3.63
2018-10-07T14:40:16.167Z,3.93
2018-10-07T14:42:44.525Z,4.47
2018-10-07T14:45:12.761Z,3.97
2018-10-07T14:47:41.132Z,4.20
2018-10-07T14:50:09.455Z,3.90
2018-10-07T14:52:37.655Z,4.67
2018-10-07T14:55:08.258Z,3.97
2018-10-07T14:57:37.232Z,4.00
2018-10-07T15:00:06.129Z,4.10
2018-10-07T15:02:34.501Z,3.73
2018-10-07T15:05:04.773Z,4.13
2018-10-07T15:07:33.227Z,4.20
2018-10-07T15:10:01.438Z,3.80
2018-10-07T15:12:29.962Z,3.47
2018-10-07T15:14:58.260Z,4.17
2018-10-07T15:17:28.984Z,3.93
2018-10-07T15:19:57.386Z,4.17
2018-10-07T15:22:30.419Z,4.20
2018-10-07T15:24:58.819Z,3.50
2018-10-07T15:27:27.075Z,4.17
2018-10-07T15:29:55.300Z,4.10
2018-10-07T15:32:23.513Z,4.10
2018-10-07T15:34:51.718Z,3.73
2018-10-07T15:37:19.959Z,3.80
2018-10-07T15:39:50.463Z,3.73
2018-10-07T15:42:18.739Z,3.83
2018-10-07T15:44:46.980Z,3.90
2018-10-07T15:47:15.137Z,3.60
2018-10-07T15:49:43.340Z,3.80
2018-10-07T15:52:11.553Z,3.53
2018-10-07T15:54:39.880Z,3.60
2018-10-07T15:57:08.154Z,3.83
2018-10-07T15:59:36.458Z,3.63
2018-10-07T16:02:04.860Z,3.47
2018-10-07T16:04:33.104Z,3.60
2018-10-07T16:07:01.357Z,3.50
2018-10-07T16:09:29.572Z,3.90
2018-10-07T16:11:57.848Z,3.60
2018-10-07T16:14:26.147Z,3.63
2018-10-07T16:16:54.422Z,3.87
2018-10-07T16:19:22.709Z,3.73
2018-10-07T16:21:50.974Z,4.17
2018-10-07T16:24:19.297Z,3.80
2018-10-07T16:26:47.479Z,3.80
2018-10-07T16:29:15.675Z,4.20
2018-10-07T16:31:43.910Z,3.67
2018-10-07T16:34:12.133Z,3.80
2018-10-07T16:36:40.436Z,3.60
2018-10-07T16:39:08.810Z,3.90
2018-10-07T16:41:37.053Z,4.80
2018-10-07T16:44:05.240Z,3.87
2018-10-07T16:46:33.783Z,3.73
2018-10-07T16:51:38.143Z,3.37
2018-10-07T16:54:07.094Z,3.90
2018-10-07T16:56:37.491Z,3.70
2018-10-07T16:59:07.018Z,3.73
2018-10-07T17:01:36.081Z,3.40
2018-10-07T17:04:04.942Z,4.13
2018-10-07T17:06:33.678Z,4.33
2018-10-07T17:09:02.485Z,4.50
2018-10-07T17:11:31.414Z,4.50
2018-10-07T17:14:00.002Z,3.93
2018-10-07T17:16:28.599Z,4.60
2018-10-07T17:18:57.013Z,3.90
2018-10-07T17:21:25.514Z,4.83
2018-10-07T17:23:54.116Z,4.27
2018-10-07T17:26:22.612Z,4.37
2018-10-07T17:28:51.083Z,4.17
2018-10-07T17:31:19.921Z,3.93
2018-10-07T17:33:48.437Z,4.53
2018-10-07T17:36:17.164Z,4.00
2018-10-07T17:38:46.453Z,4.13
2018-10-07T17:41:15.318Z,4.07
2018-10-07T17:43:43.969Z,4.20
2018-10-07T17:46:12.836Z,3.83
2018-10-07T17:48:41.574Z,3.73
2018-10-07T17:51:11.082Z,4.37
2018-10-07T17:53:39.316Z,3.77
2018-10-07T17:56:07.604Z,4.53
2018-10-07T17:58:35.742Z,3.60
2018-10-07T18:01:04.010Z,4.27
2018-10-07T18:03:32.140Z,4.00
2018-10-07T18:06:00.343Z,4.40
2018-10-07T18:08:28.786Z,3.80
2018-10-07T18:10:56.947Z,4.27
2018-10-07T18:13:25.290Z,4.10
2018-10-07T18:15:54.636Z,3.97
2018-10-07T18:18:22.822Z,3.70
2018-10-07T18:20:51.020Z,4.40
2018-10-07T18:23:19.178Z,4.57
2018-10-07T18:25:47.426Z,4.50
2018-10-07T18:28:15.697Z,4.10
2018-10-07T18:30:43.952Z,5.13
2018-10-07T18:33:12.170Z,5.30
2018-10-07T18:35:40.364Z,4.80
2018-10-07T18:38:08.538Z,4.90
2018-10-07T18:40:36.750Z,4.33
2018-10-07T18:43:05.166Z,4.10
2018-10-07T18:45:33.409Z,4.50
2018-10-07T18:48:01.643Z,5.20
2018-10-07T18:50:29.838Z,5.20
2018-10-07T18:52:58.396Z,5.33
2018-10-07T18:55:26.725Z,5.67
2018-10-07T18:57:55.048Z,6.70
2018-10-07T19:00:23.288Z,5.57
2018-10-07T19:02:51.587Z,5.70
2018-10-07T19:05:19.891Z,5.20
2018-10-07T19:07:48.147Z,4.70
2018-10-07T19:10:16.438Z,5.17
2018-10-07T19:12:44.677Z,4.70
2018-10-07T19:15:12.843Z,4.40
2018-10-07T19:17:41.189Z,4.47
2018-10-07T19:20:09.407Z,4.43
2018-10-07T19:22:37.743Z,4.60
2018-10-07T19:25:06.004Z,4.90
2018-10-07T19:27:34.228Z,5.40
2018-10-07T19:30:02.527Z,5.17
2018-10-07T19:32:30.745Z,5.20
2018-10-07T19:34:58.938Z,4.67
2018-10-07T19:37:27.406Z,5.37
2018-10-07T19:39:56.323Z,5.87
2018-10-07T19:42:24.555Z,5.10
2018-10-07T19:44:53.089Z,5.50
2018-10-07T19:47:21.308Z,5.70
2018-10-07T19:49:49.512Z,6.00
2018-10-07T19:52:17.771Z,6.67
2018-10-07T19:54:45.954Z,6.43
2018-10-07T19:57:14.157Z,5.83
2018-10-07T19:59:42.370Z,6.13
2018-10-07T20:02:10.631Z,5.53
2018-10-07T20:04:38.935Z,5.67
2018-10-07T20:07:07.151Z,5.40
2018-10-07T20:09:35.393Z,5.27
2018-10-07T20:12:03.735Z,4.60
2018-10-07T20:14:31.897Z,5.00
2018-10-07T20:17:00.163Z,4.87
2018-10-07T20:19:28.519Z,4.47
2018-10-07T20:21:58.800Z,4.60
2018-10-07T20:24:27.266Z,4.40
2018-10-07T20:26:55.686Z,4.30
2018-10-07T20:29:24.179Z,4.50
2018-10-07T20:31:52.590Z,4.30
2018-10-07T20:34:21.024Z,4.57
2018-10-07T20:36:49.391Z,4.87
2018-10-07T20:39:17.866Z,5.00
2018-10-07T20:41:46.396Z,5.37
2018-10-07T20:44:15.498Z,5.17
2018-10-07T20:46:43.801Z,5.63
2018-10-07T20:49:11.987Z,5.13
2018-10-07T20:51:40.659Z,5.67
2018-10-07T20:54:08.847Z,6.80
2018-10-07T20:56:37.076Z,6.67
2018-10-07T20:59:05.293Z,7.83
2018-10-07T21:01:33.516Z,7.93
2018-10-07T21:04:01.807Z,8.37
2018-10-07T21:06:30.030Z,7.77
2018-10-07T21:08:58.175Z,7.27
2018-10-07T21:11:26.751Z,8.23
2018-10-07T21:13:55.216Z,8.40
2018-10-07T21:16:23.484Z,7.73
2018-10-07T21:18:51.689Z,8.40
2018-10-07T21:21:19.863Z,10.30
2018-10-07T21:23:48.002Z,9.37
2018-10-07T21:26:16.204Z,9.40
2018-10-07T21:28:44.399Z,9.77
2018-10-07T21:31:13.408Z,10.83
2018-10-07T21:33:42.132Z,13.17
2018-10-07T21:36:10.282Z,13.13
2018-10-07T21:38:38.467Z,14.07
2018-10-07T21:41:06.605Z,14.40
2018-10-07T21:43:34.792Z,14.73
2018-10-07T21:46:03.070Z,14.83
2018-10-07T21:48:31.266Z,14.33
2018-10-07T21:50:59.384Z,14.93
2018-10-07T21:53:27.529Z,15.77
2018-10-07T21:55:55.791Z,16.73
2018-10-07T21:58:23.950Z,15.73
2018-10-07T22:00:52.151Z,17.17
2018-10-07T22:03:20.451Z,16.87
2018-10-07T22:05:48.681Z,17.07
2018-10-07T22:08:16.782Z,16.80
2018-10-07T22:10:44.931Z,17.60
2018-10-07T22:13:13.127Z,18.77
2018-10-07T22:15:41.288Z,20.00
2018-10-07T22:18:09.476Z,19.43
2018-10-07T22:20:37.650Z,19.77
2018-10-07T22:23:05.820Z,19.33
2018-10-07T22:25:33.997Z,20.73
2018-10-07T22:28:02.237Z,21.43
2018-10-07T22:30:30.360Z,20.87
2018-10-07T22:32:58.504Z,20.30
2018-10-07T22:35:26.684Z,20.43
2018-10-07T22:37:54.872Z,21.17
2018-10-07T22:40:23.029Z,22.27
2018-10-07T22:42:51.177Z,22.03
2018-10-07T22:45:19.365Z,22.70
2018-10-07T22:47:47.655Z,23.73
2018-10-07T22:50:17.989Z,22.33
2018-10-07T22:52:46.141Z,22.90
2018-10-07T22:55:14.416Z,22.90
2018-10-07T22:57:42.695Z,24.37
2018-10-07T23:00:10.870Z,23.13
2018-10-07T23:02:39.003Z,24.03
2018-10-07T23:05:07.135Z,24.83
2018-10-07T23:07:35.403Z,25.97
2018-10-07T23:10:03.523Z,24.70
2018-10-07T23:12:31.683Z,25.93
2018-10-07T23:14:59.873Z,25.40
2018-10-07T23:17:28.326Z,25.90
2018-10-07T23:19:56.462Z,26.60
2018-10-07T23:22:24.679Z,26.07
2018-10-07T23:24:52.869Z,26.30
2018-10-07T23:27:21.222Z,26.37
2018-10-07T23:29:49.339Z,25.70
2018-10-07T23:32:17.485Z,26.43
2018-10-07T23:34:45.585Z,25.90
2018-10-07T23:37:13.749Z,27.00
2018-10-07T23:39:41.848Z,27.07
2018-10-07T23:42:09.985Z,25.53
2018-10-07T23:44:38.094Z,27.70
2018-10-07T23:47:06.299Z,27.43
2018-10-07T23:49:34.522Z,28.10
2018-10-07T23:52:02.672Z,29.27
2018-10-07T23:54:30.851Z,28.87
2018-10-07T23:56:59.020Z,30.20
2018-10-07T23:59:27.157Z,28.30
